createdAt,value
2022-08-08T00:00:52.596Z,9.50
2022-08-08T00:03:31.429Z,12.10
2022-08-08T00:06:28.335Z,7.20
2022-08-08T00:09:25.362Z,8.20
2022-08-08T00:16:11.724Z,6.90
2022-08-08T00:25:59.401Z,7.10
2022-08-08T00:28:37.020Z,8.40
2022-08-08T00:32:20.780Z,7.20
2022-08-08T00:35:30.361Z,7.70
2022-08-08T00:38:31.404Z,6.60
2022-08-08T00:41:22.017Z,8.20
2022-08-08T00:44:12.180Z,9.20
2022-08-08T00:47:23.069Z,11.30
2022-08-08T00:50:12.366Z,8.00
2022-08-08T00:53:16.131Z,8.60
2022-08-08T00:56:35.141Z,10.80
2022-08-08T00:59:43.799Z,8.70
2022-08-08T01:06:52.285Z,11.00
2022-08-08T01:09:52.106Z,7.60
2022-08-08T01:12:42.302Z,8.60
2022-08-08T01:15:44.204Z,8.80
2022-08-08T01:19:02.720Z,9.60
2022-08-08T01:22:12.607Z,12.20
2022-08-08T01:25:40.193Z,8.10
2022-08-08T01:28:32.482Z,9.20
2022-08-08T01:35:29.757Z,7.00
2022-08-08T01:38:07.071Z,7.40
2022-08-08T01:41:01.126Z,8.50
2022-08-08T01:44:18.485Z,6.90
2022-08-08T01:48:15.542Z,10.50
2022-08-08T01:50:29.865Z,8.90
2022-08-08T01:55:45.986Z,8.60
2022-08-08T01:57:17.690Z,9.50
2022-08-08T02:00:01.998Z,10.90
2022-08-08T02:02:57.466Z,8.60
2022-08-08T02:05:56.485Z,11.90
2022-08-08T02:09:17.436Z,11.70
2022-08-08T02:11:58.984Z,9.40
2022-08-08T02:14:55.848Z,9.60
2022-08-08T02:18:05.543Z,10.70
2022-08-08T02:21:18.099Z,10.90
2022-08-08T02:24:34.116Z,11.30
2022-08-08T02:27:27.327Z,14.70
2022-08-08T02:30:24.763Z,13.10
2022-08-08T02:34:00.087Z,12.10
2022-08-08T02:36:39.648Z,11.30
2022-08-08T02:39:42.557Z,12.00
2022-08-08T02:44:34.948Z,11.10
2022-08-08T02:46:23.679Z,9.80
2022-08-08T02:49:47.835Z,10.00
2022-08-08T02:52:35.384Z,9.90
2022-08-08T02:55:37.775Z,9.90
2022-08-08T02:58:28.378Z,12.00
2022-08-08T03:01:47.235Z,10.60
2022-08-08T03:05:03.479Z,10.50
2022-08-08T03:07:57.742Z,12.50
2022-08-08T03:10:53.860Z,9.00
2022-08-08T03:15:59.173Z,9.60
2022-08-08T03:16:54.255Z,10.30
2022-08-08T03:19:38.553Z,10.70
2022-08-08T03:22:38.502Z,11.50
2022-08-08T03:24:56.838Z,9.90
2022-08-08T03:27:35.824Z,10.60
2022-08-08T03:30:19.071Z,15.30
2022-08-08T03:33:54.880Z,13.50
2022-08-08T03:36:01.166Z,12.10
2022-08-08T03:38:56.191Z,12.20
2022-08-08T03:42:13.340Z,12.20
2022-08-08T03:44:08.032Z,16.80
2022-08-08T03:46:48.634Z,15.90
2022-08-08T03:49:58.928Z,18.90
2022-08-08T03:52:12.826Z,11.70
2022-08-08T03:55:02.323Z,12.90
2022-08-08T03:58:34.328Z,12.20
2022-08-08T04:00:26.927Z,17.80
2022-08-08T04:03:11.634Z,15.10
2022-08-08T04:05:49.595Z,15.90
2022-08-08T04:08:33.860Z,15.90
2022-08-08T04:11:11.363Z,16.80
2022-08-08T04:14:33.065Z,15.60
2022-08-08T04:16:40.349Z,14.70
2022-08-08T04:19:23.287Z,14.60
2022-08-08T04:21:54.169Z,14.40
2022-08-08T04:24:29.357Z,15.70
2022-08-08T04:27:00.595Z,16.20
2022-08-08T04:29:33.298Z,17.00
2022-08-08T04:32:10.591Z,15.00
2022-08-08T04:34:49.277Z,16.70
2022-08-08T04:37:31.629Z,16.70
2022-08-08T04:40:10.517Z,15.60
2022-08-08T04:42:57.281Z,16.70
2022-08-08T04:45:46.377Z,14.90
2022-08-08T04:48:15.463Z,16.20
2022-08-08T04:50:45.951Z,17.40
2022-08-08T04:54:27.144Z,13.80
2022-08-08T04:56:07.846Z,15.90
2022-08-08T04:58:37.193Z,15.00
2022-08-08T05:01:11.012Z,17.10
2022-08-08T05:04:10.457Z,15.00
2022-08-08T05:06:39.297Z,16.70
2022-08-08T05:09:09.069Z,15.50
2022-08-08T05:11:41.130Z,17.70
2022-08-08T05:14:14.937Z,18.20
2022-08-08T05:17:00.596Z,16.50
2022-08-08T05:20:10.667Z,13.60
2022-08-08T05:22:32.688Z,14.90
2022-08-08T05:25:02.970Z,15.50
2022-08-08T05:27:33.180Z,15.80
2022-08-08T05:30:03.815Z,14.40
2022-08-08T05:32:50.952Z,14.10
2022-08-08T05:35:24.019Z,13.90
2022-08-08T05:38:30.600Z,18.40
2022-08-08T05:41:02.410Z,15.30
2022-08-08T05:43:39.154Z,16.60
2022-08-08T05:46:10.545Z,14.70
2022-08-08T05:48:41.886Z,14.50
2022-08-08T05:51:15.094Z,12.90
2022-08-08T05:54:25.661Z,13.80
2022-08-08T05:56:47.609Z,14.80
2022-08-08T05:59:59.053Z,12.60
2022-08-08T06:02:43.513Z,12.30
2022-08-08T06:08:28.209Z,13.40
2022-08-08T06:11:05.203Z,13.50
2022-08-08T06:13:36.149Z,13.40
2022-08-08T06:16:19.178Z,15.40
2022-08-08T06:18:55.370Z,11.60
2022-08-08T06:21:32.541Z,13.30
2022-08-08T06:24:30.251Z,15.20
2022-08-08T06:27:06.271Z,11.70
2022-08-08T06:30:00.094Z,12.20
2022-08-08T06:32:50.206Z,12.70
2022-08-08T06:36:06.220Z,12.70
2022-08-08T06:40:54.338Z,10.70
2022-08-08T06:43:57.506Z,11.40
2022-08-08T06:46:30.986Z,10.40
2022-08-08T06:49:00.995Z,10.60
2022-08-08T06:51:46.639Z,11.60
2022-08-08T06:54:20.258Z,11.00
2022-08-08T06:56:52.728Z,10.50
2022-08-08T06:59:21.623Z,13.20
2022-08-08T07:02:26.877Z,11.30
2022-08-08T07:04:55.825Z,13.10
2022-08-08T07:07:57.191Z,10.90
2022-08-08T07:10:35.525Z,15.90
2022-08-08T07:13:09.547Z,11.40
2022-08-08T07:16:04.370Z,13.10
2022-08-08T07:18:55.909Z,17.00
2022-08-08T07:21:32.147Z,11.50
2022-08-08T07:24:17.776Z,9.50
2022-08-08T07:26:53.286Z,10.80
2022-08-08T07:30:01.685Z,10.10
2022-08-08T07:32:15.789Z,10.50
2022-08-08T07:34:59.319Z,10.70
2022-08-08T07:37:55.772Z,12.70
2022-08-08T07:40:29.174Z,12.50
2022-08-08T07:43:01.389Z,9.70
2022-08-08T07:45:34.320Z,11.50
2022-08-08T07:48:05.123Z,10.50
2022-08-08T07:50:35.015Z,10.30
2022-08-08T07:54:01.550Z,10.20
2022-08-08T07:56:55.538Z,9.20
2022-08-08T07:59:27.217Z,9.90
2022-08-08T08:02:35.000Z,10.60
2022-08-08T08:05:03.703Z,10.70
2022-08-08T08:07:37.798Z,9.60
2022-08-08T08:10:13.287Z,12.20
2022-08-08T08:12:54.209Z,12.20
2022-08-08T08:15:31.804Z,10.30
2022-08-08T08:18:05.951Z,9.70
2022-08-08T08:20:44.474Z,8.70
2022-08-08T08:23:14.550Z,12.10
2022-08-08T08:25:56.721Z,11.60
2022-08-08T08:28:26.974Z,9.30
2022-08-08T08:31:05.054Z,10.90
2022-08-08T08:33:36.150Z,9.80
2022-08-08T08:36:20.026Z,10.00
2022-08-08T08:38:52.210Z,9.20
2022-08-08T08:41:30.979Z,9.10
2022-08-08T08:44:13.694Z,8.60
2022-08-08T08:46:47.438Z,9.50
2022-08-08T08:49:19.925Z,8.30
2022-08-08T08:51:54.363Z,8.60
2022-08-08T08:54:25.752Z,9.30
2022-08-08T08:56:56.409Z,8.10
2022-08-08T08:59:58.757Z,8.40
2022-08-08T09:02:21.835Z,8.60
2022-08-08T09:04:59.489Z,7.20
2022-08-08T09:07:38.985Z,19.60
2022-08-08T09:10:23.503Z,7.20
2022-08-08T09:13:00.617Z,9.70
2022-08-08T09:15:40.894Z,10.40
2022-08-08T09:18:13.125Z,7.40
2022-08-08T09:21:59.988Z,7.90
2022-08-08T09:23:40.673Z,8.20
2022-08-08T09:26:32.279Z,9.30
2022-08-08T09:29:08.195Z,12.90
2022-08-08T09:32:19.607Z,8.50
2022-08-08T09:34:51.656Z,7.60
2022-08-08T09:37:59.345Z,9.10
2022-08-08T09:40:21.327Z,8.50
2022-08-08T09:43:16.400Z,10.90
2022-08-08T09:46:06.628Z,8.00
2022-08-08T09:48:46.422Z,7.50
2022-08-08T09:51:26.843Z,7.50
2022-08-08T09:54:08.366Z,8.60
2022-08-08T09:56:45.362Z,8.10
2022-08-08T10:02:29.305Z,8.50
2022-08-08T10:05:23.036Z,7.70
2022-08-08T10:08:00.075Z,8.10
2022-08-08T10:10:33.912Z,7.50
2022-08-08T10:13:35.533Z,9.50
2022-08-08T10:16:05.178Z,8.00
2022-08-08T10:18:36.592Z,8.70
2022-08-08T10:21:25.713Z,10.50
2022-08-08T10:24:03.354Z,14.30
2022-08-08T10:26:57.438Z,10.70
2022-08-08T10:29:58.829Z,13.10
2022-08-08T10:32:38.259Z,12.20
2022-08-08T10:36:01.905Z,7.50
2022-08-08T10:38:07.868Z,7.30
2022-08-08T10:40:39.309Z,7.60
2022-08-08T10:43:09.901Z,8.10
2022-08-08T10:45:55.068Z,5.60
2022-08-08T10:48:55.841Z,9.10
2022-08-08T10:51:26.092Z,5.80
2022-08-08T10:53:58.300Z,5.30
2022-08-08T10:56:34.682Z,5.90
2022-08-08T10:59:14.136Z,6.00
2022-08-08T11:01:54.342Z,6.90
2022-08-08T11:04:29.575Z,6.90
2022-08-08T11:07:01.326Z,9.80
2022-08-08T11:09:32.213Z,6.00
2022-08-08T11:12:13.140Z,8.70
2022-08-08T11:15:00.816Z,5.70
2022-08-08T11:17:59.718Z,8.00
2022-08-08T11:20:27.278Z,6.60
2022-08-08T11:23:05.697Z,6.60
2022-08-08T11:25:52.963Z,7.10
2022-08-08T11:28:30.524Z,11.50
2022-08-08T11:31:03.651Z,8.50
2022-08-08T11:33:52.387Z,7.20
2022-08-08T11:36:27.569Z,7.30
2022-08-08T11:38:57.367Z,6.70
2022-08-08T11:41:33.647Z,6.20
2022-08-08T11:44:05.525Z,6.30
2022-08-08T11:46:34.948Z,7.80
2022-08-08T11:49:09.260Z,10.80
2022-08-08T11:51:49.914Z,8.80
2022-08-08T11:54:33.954Z,7.10
2022-08-08T11:57:17.330Z,7.30
2022-08-08T12:00:00.587Z,8.80
2022-08-08T12:02:51.479Z,7.10
2022-08-08T12:05:33.659Z,9.80
2022-08-08T12:08:04.383Z,8.40
2022-08-08T12:10:34.487Z,7.40
2022-08-08T12:13:12.382Z,8.10
2022-08-08T12:15:49.401Z,6.30
2022-08-08T12:18:24.458Z,6.80
2022-08-08T12:20:55.394Z,6.30
2022-08-08T12:23:30.631Z,6.90
2022-08-08T12:26:17.155Z,7.40
2022-08-08T12:28:59.699Z,6.80
2022-08-08T12:31:39.210Z,6.70
2022-08-08T12:34:38.016Z,8.10
2022-08-08T12:37:11.264Z,8.80
2022-08-08T12:40:00.722Z,7.20
2022-08-08T12:42:32.967Z,9.40
2022-08-08T12:45:58.297Z,7.10
2022-08-08T12:48:09.747Z,8.90
2022-08-08T12:50:49.594Z,6.20
2022-08-08T12:53:30.251Z,6.90
2022-08-08T12:56:19.392Z,6.90
2022-08-08T12:58:54.575Z,7.90
2022-08-08T13:01:37.750Z,7.00
2022-08-08T13:04:18.342Z,8.00
2022-08-08T13:06:55.179Z,5.90
2022-08-08T13:09:43.045Z,6.80
2022-08-08T13:12:30.753Z,8.90
2022-08-08T13:15:06.076Z,8.10
2022-08-08T13:18:09.287Z,7.70
2022-08-08T13:20:27.097Z,11.80
2022-08-08T13:23:29.924Z,7.50
2022-08-08T13:25:50.150Z,9.20
2022-08-08T13:28:32.106Z,8.70
2022-08-08T13:31:05.346Z,7.60
2022-08-08T13:33:42.103Z,7.80
2022-08-08T13:36:12.092Z,7.40
2022-08-08T13:38:40.865Z,9.00
2022-08-08T13:41:16.065Z,8.50
2022-08-08T13:43:49.920Z,7.80
2022-08-08T13:46:28.703Z,9.20
2022-08-08T13:49:11.487Z,9.10
2022-08-08T13:51:57.243Z,14.20
2022-08-08T13:54:29.560Z,10.60
2022-08-08T13:57:12.822Z,8.70
2022-08-08T13:59:48.533Z,9.80
2022-08-08T14:02:23.468Z,11.40
2022-08-08T14:05:04.845Z,7.70
2022-08-08T14:07:52.579Z,7.70
2022-08-08T14:10:32.959Z,8.80
2022-08-08T14:13:30.293Z,8.10
2022-08-08T14:16:16.041Z,9.40
2022-08-08T14:18:57.779Z,10.00
2022-08-08T14:21:48.829Z,11.20
2022-08-08T14:24:34.433Z,7.00
2022-08-08T14:27:07.683Z,8.40
2022-08-08T14:29:39.510Z,14.90
2022-08-08T14:32:17.081Z,7.60
2022-08-08T14:34:56.177Z,8.80
2022-08-08T14:37:27.918Z,6.80
2022-08-08T14:40:05.633Z,7.80
2022-08-08T14:42:55.378Z,7.10
2022-08-08T14:45:33.247Z,6.90
2022-08-08T14:48:27.429Z,8.00
2022-08-08T14:51:07.536Z,8.10
2022-08-08T14:53:54.527Z,7.90
2022-08-08T14:56:26.892Z,8.40
2022-08-08T14:58:57.908Z,7.00
2022-08-08T15:01:37.391Z,8.40
2022-08-08T15:04:11.794Z,9.10
2022-08-08T15:06:42.443Z,9.50
2022-08-08T15:09:12.786Z,9.00
2022-08-08T15:11:46.553Z,8.60
2022-08-08T15:14:25.089Z,9.10
2022-08-08T15:16:57.051Z,9.10
2022-08-08T15:19:28.212Z,7.90
2022-08-08T15:21:57.880Z,8.70
2022-08-08T15:24:31.367Z,9.60
2022-08-08T15:27:11.926Z,8.70
2022-08-08T15:29:49.835Z,10.50
2022-08-08T15:32:20.866Z,7.90
2022-08-08T15:34:51.596Z,8.80
2022-08-08T15:37:19.995Z,10.30
2022-08-08T15:39:48.695Z,8.60
2022-08-08T15:42:33.122Z,10.70
2022-08-08T15:45:02.534Z,7.80
2022-08-08T15:47:32.158Z,8.50
2022-08-08T15:50:01.666Z,13.60
2022-08-08T15:52:31.408Z,9.10
2022-08-08T15:55:01.872Z,7.90
2022-08-08T15:57:35.651Z,13.40
2022-08-08T16:00:27.316Z,7.30
2022-08-08T16:02:58.025Z,8.20
2022-08-08T16:05:35.587Z,8.50
2022-08-08T16:08:19.946Z,8.40
2022-08-08T16:13:02.012Z,8.10
2022-08-08T16:13:45.009Z,8.00
2022-08-08T16:16:18.029Z,10.20
2022-08-08T16:18:57.254Z,9.70
2022-08-08T16:21:30.928Z,8.40
2022-08-08T16:24:03.410Z,8.60
2022-08-08T16:26:36.313Z,7.50
2022-08-08T16:29:08.767Z,7.50
2022-08-08T16:31:44.737Z,7.80
2022-08-08T16:34:20.815Z,9.90
2022-08-08T16:36:52.780Z,7.90
2022-08-08T16:39:49.042Z,7.20
2022-08-08T16:42:13.913Z,9.50
2022-08-08T16:44:54.274Z,7.00
2022-08-08T16:47:40.247Z,7.90
2022-08-08T16:50:20.173Z,7.90
2022-08-08T16:55:06.468Z,7.40
2022-08-08T16:55:56.726Z,5.40
2022-08-08T16:58:29.457Z,6.60
2022-08-08T17:01:05.545Z,6.80
2022-08-08T17:03:58.591Z,7.60
2022-08-08T17:06:41.738Z,7.50
2022-08-08T17:09:14.882Z,6.90
2022-08-08T17:11:49.306Z,7.40
2022-08-08T17:14:27.212Z,10.70
2022-08-08T17:17:22.957Z,6.90
2022-08-08T17:19:55.459Z,5.40
2022-08-08T17:22:38.917Z,5.00
2022-08-08T17:25:11.670Z,5.70
2022-08-08T17:27:46.576Z,7.10
2022-08-08T17:30:27.443Z,6.10
2022-08-08T17:34:53.692Z,6.40
2022-08-08T17:35:56.191Z,6.10
2022-08-08T17:38:34.543Z,4.70
2022-08-08T17:41:02.944Z,5.40
2022-08-08T17:43:32.614Z,7.10
2022-08-08T17:46:55.726Z,8.30
2022-08-08T17:49:28.787Z,6.50
2022-08-08T17:52:11.265Z,6.00
2022-08-08T17:54:40.982Z,6.10
2022-08-08T17:57:14.629Z,5.60
2022-08-08T17:59:45.777Z,6.50
2022-08-08T18:02:18.605Z,6.70
2022-08-08T18:04:51.013Z,7.10
2022-08-08T18:08:03.575Z,7.40
2022-08-08T18:10:08.147Z,6.70
2022-08-08T18:12:37.168Z,8.20
2022-08-08T18:15:07.353Z,7.10
2022-08-08T18:18:05.407Z,6.40
2022-08-08T18:20:43.989Z,5.10
2022-08-08T18:23:15.925Z,4.60
2022-08-08T18:25:44.924Z,4.70
2022-08-08T18:28:14.347Z,6.70
2022-08-08T18:30:43.056Z,7.20
2022-08-08T18:33:36.933Z,5.90
2022-08-08T18:36:03.356Z,6.70
2022-08-08T18:38:34.323Z,6.60
2022-08-08T18:41:03.306Z,6.30
2022-08-08T18:43:42.829Z,7.50
2022-08-08T18:46:56.114Z,7.30
2022-08-08T18:49:01.028Z,8.50
2022-08-08T18:51:53.188Z,7.30
2022-08-08T18:54:22.572Z,7.40
2022-08-08T18:56:55.455Z,7.30
2022-08-08T18:59:23.857Z,11.50
2022-08-08T19:02:25.085Z,9.60
2022-08-08T19:04:40.685Z,4.90
2022-08-08T19:07:12.256Z,4.90
2022-08-08T19:09:48.955Z,4.30
2022-08-08T19:12:29.593Z,4.40
2022-08-08T19:14:58.059Z,4.80
2022-08-08T19:17:29.507Z,4.60
2022-08-08T19:20:17.514Z,4.60
2022-08-08T19:22:47.873Z,4.90
2022-08-08T19:26:01.223Z,4.70
2022-08-08T19:28:17.847Z,4.50
2022-08-08T19:31:03.266Z,4.60
2022-08-08T19:33:51.601Z,7.50
2022-08-08T19:36:27.457Z,5.20
2022-08-08T19:38:57.200Z,5.00
2022-08-08T19:41:33.582Z,4.50
2022-08-08T19:44:12.658Z,4.30
2022-08-08T19:46:50.603Z,4.30
2022-08-08T19:49:19.636Z,4.30
2022-08-08T19:51:49.104Z,3.50
2022-08-08T19:54:17.508Z,3.60
2022-08-08T19:56:48.629Z,4.00
2022-08-08T19:59:18.839Z,3.30
2022-08-08T20:02:03.552Z,4.30
2022-08-08T20:04:34.805Z,3.30
2022-08-08T20:08:29.786Z,4.10
2022-08-08T20:09:56.146Z,3.80
2022-08-08T20:12:32.464Z,3.90
2022-08-08T20:15:15.163Z,5.40
2022-08-08T20:17:47.861Z,4.20
2022-08-08T20:20:20.533Z,4.50
2022-08-08T20:22:54.024Z,3.40
2022-08-08T20:25:29.810Z,3.30
2022-08-08T20:28:06.401Z,3.80
2022-08-08T20:30:55.699Z,3.90
2022-08-08T20:35:57.850Z,4.30
2022-08-08T20:38:32.777Z,6.00
2022-08-08T20:41:17.751Z,6.20
2022-08-08T20:43:49.760Z,15.10
2022-08-08T20:46:25.309Z,5.10
2022-08-08T20:48:58.229Z,5.30
2022-08-08T20:51:32.410Z,5.00
2022-08-08T20:54:04.840Z,4.70
2022-08-08T20:57:04.682Z,6.70
2022-08-08T20:59:29.276Z,5.70
2022-08-08T21:02:07.654Z,6.50
2022-08-08T21:04:38.177Z,5.80
2022-08-08T21:07:08.141Z,6.20
2022-08-08T21:09:48.658Z,5.20
2022-08-08T21:12:33.050Z,6.30
2022-08-08T21:15:09.645Z,4.30
2022-08-08T21:17:38.308Z,5.20
2022-08-08T21:20:09.661Z,5.90
2022-08-08T21:22:38.050Z,6.30
2022-08-08T21:25:10.604Z,10.50
2022-08-08T21:28:09.271Z,4.20
2022-08-08T21:30:30.364Z,4.40
2022-08-08T21:32:59.160Z,5.10
2022-08-08T21:36:16.237Z,5.10
2022-08-08T21:38:18.257Z,6.60
2022-08-08T21:40:54.969Z,6.50
2022-08-08T21:43:33.571Z,6.80
2022-08-08T21:48:06.186Z,6.90
2022-08-08T21:48:54.538Z,4.70
2022-08-08T21:54:51.772Z,4.40
2022-08-08T21:57:09.518Z,3.30
2022-08-08T22:00:01.982Z,5.00
2022-08-08T22:02:26.632Z,4.70
2022-08-08T22:04:58.859Z,4.20
2022-08-08T22:07:39.724Z,6.40
2022-08-08T22:10:18.434Z,5.50
2022-08-08T22:13:18.922Z,4.40
2022-08-08T22:15:58.691Z,5.20
2022-08-08T22:18:33.879Z,4.20
2022-08-08T22:21:10.721Z,4.70
2022-08-08T22:23:50.323Z,3.10
2022-08-08T22:26:28.806Z,4.40
2022-08-08T22:29:13.254Z,3.50
2022-08-08T22:32:01.830Z,4.20
2022-08-08T22:34:39.170Z,2.10
2022-08-08T22:37:27.792Z,2.20
2022-08-08T22:40:00.832Z,1.70
2022-08-08T22:42:31.893Z,2.20
2022-08-08T22:45:12.610Z,2.90
2022-08-08T22:47:47.385Z,2.30
2022-08-08T22:50:25.799Z,2.20
2022-08-08T22:54:29.335Z,1.90
2022-08-08T22:55:58.589Z,2.60
2022-08-08T22:58:33.012Z,2.70
2022-08-08T23:01:26.449Z,2.40
2022-08-08T23:03:57.098Z,3.80
2022-08-08T23:06:27.044Z,2.30
2022-08-08T23:08:59.002Z,2.20
2022-08-08T23:12:17.914Z,3.40
2022-08-08T23:14:21.489Z,3.10
2022-08-08T23:16:54.564Z,3.80
2022-08-08T23:19:32.279Z,5.50
2022-08-08T23:22:04.630Z,4.30
2022-08-08T23:24:36.630Z,5.10
2022-08-08T23:27:17.167Z,6.20
2022-08-08T23:30:00.226Z,4.50
2022-08-08T23:32:28.587Z,4.90
2022-08-08T23:34:59.021Z,5.10
2022-08-08T23:38:00.833Z,3.60
2022-08-08T23:40:21.861Z,2.50
2022-08-08T23:42:51.462Z,4.00
2022-08-08T23:48:59.779Z,19.40
2022-08-08T23:49:01.623Z,9.50
2022-08-08T23:50:58.107Z,12.20
2022-08-08T23:54:05.890Z,12.80
2022-08-08T23:56:24.085Z,20.80
2022-08-08T23:59:02.380Z,17.50
